Time;durP1;ratioP1;P1;durP2;ratioP2;P2;SDS_P1;SDS_P2;PMS_P1;PMS_P2;Temp;Humidity;BMP_temperature;BMP_pressure;BME280_temperature;BME280_humidity;BME280_pressure;Samples;Min_cycle;Max_cycle;Signal;HPM_P1;HPM_P2
2022/08/20 00:00:08;;;;;;;8.75;4.15;;;21.60;99.90;;;;;;6213186;23;19992;-79
2022/08/20 00:02:51;;;;;;;14.98;4.00;;;21.70;99.90;;;;;;6211790;23;20456;-79
2022/08/20 00:05:25;;;;;;;12.18;4.32;;;21.70;99.90;;;;;;6213765;23;20001;-78
2022/08/20 00:07:51;;;;;;;8.68;3.67;;;21.70;99.90;;;;;;6212913;23;20020;-78
2022/08/20 00:10:17;;;;;;;8.18;3.80;;;21.70;99.90;;;;;;6211775;23;20087;-78
2022/08/20 00:12:46;;;;;;;6.72;3.40;;;21.70;99.90;;;;;;6211618;23;20004;-79
2022/08/20 00:15:14;;;;;;;7.50;3.83;;;21.70;99.90;;;;;;6212963;23;20582;-78
2022/08/20 00:17:40;;;;;;;6.75;3.60;;;21.80;99.90;;;;;;6212342;23;20016;-79
2022/08/20 00:20:10;;;;;;;11.63;4.00;;;21.70;99.90;;;;;;6211981;23;20215;-79
2022/08/20 00:22:36;;;;;;;7.72;3.53;;;21.70;99.90;;;;;;6212815;23;20043;-79
2022/08/20 00:25:04;;;;;;;7.82;3.40;;;21.70;99.90;;;;;;6213648;23;20428;-79
2022/08/20 00:27:30;;;;;;;8.25;3.55;;;21.70;99.90;;;;;;6211155;23;20016;-79
2022/08/20 00:29:55;;;;;;;6.20;3.50;;;21.70;99.90;;;;;;6213338;23;20309;-79
2022/08/20 00:32:21;;;;;;;7.35;3.63;;;21.70;99.90;;;;;;6213013;23;20331;-79
2022/08/20 00:34:47;;;;;;;13.05;3.83;;;21.70;99.90;;;;;;6213199;23;20055;-79
2022/08/20 00:37:14;;;;;;;8.10;3.70;;;21.70;99.90;;;;;;6213304;23;20008;-79
2022/08/20 00:39:40;;;;;;;10.35;3.80;;;21.70;99.90;;;;;;6213404;23;20158;-79
2022/08/20 00:42:07;;;;;;;9.27;3.72;;;21.70;99.90;;;;;;6211636;23;20483;-79
2022/08/20 00:44:32;;;;;;;9.13;4.10;;;21.70;99.90;;;;;;6212630;23;20004;-78
2022/08/20 00:46:59;;;;;;;7.75;3.55;;;21.60;99.90;;;;;;6212830;23;20007;-79
2022/08/20 00:49:28;;;;;;;10.50;3.72;;;21.60;99.90;;;;;;6213267;23;19997;-79
2022/08/20 00:52:08;;;;;;;6.68;3.35;;;21.60;99.90;;;;;;6212773;23;20005;-79
2022/08/20 00:54:38;;;;;;;8.75;3.72;;;21.50;99.90;;;;;;6212706;23;20115;-79
2022/08/20 00:57:09;;;;;;;11.00;3.70;;;21.50;99.90;;;;;;6212937;23;20028;-79
2022/08/20 00:59:38;;;;;;;11.77;4.40;;;21.50;99.90;;;;;;6211340;23;20012;-79
2022/08/20 01:02:10;;;;;;;11.45;4.22;;;21.40;99.90;;;;;;6211187;23;20031;-79
2022/08/20 01:04:36;;;;;;;7.18;3.88;;;21.40;99.90;;;;;;6211095;23;20094;-78
2022/08/20 01:07:04;;;;;;;8.90;4.13;;;21.30;99.90;;;;;;6212802;23;20008;-78
2022/08/20 01:09:31;;;;;;;6.97;3.17;;;21.20;99.90;;;;;;6211655;23;20495;-79
2022/08/20 01:11:57;;;;;;;8.77;3.97;;;21.20;99.90;;;;;;6212189;23;20000;-79
2022/08/20 01:17:04;;;;;;;8.07;3.72;;;21.30;99.90;;;;;;6212580;23;20013;-79
2022/08/20 01:19:43;;;;;;;8.23;4.35;;;21.30;99.90;;;;;;6212905;23;20047;-78
2022/08/20 01:25:24;;;;;;;9.20;3.83;;;21.30;99.90;;;;;;6213114;23;20058;-78
2022/08/20 01:27:51;;;;;;;8.20;3.70;;;21.30;99.90;;;;;;6212335;23;20451;-78
2022/08/20 01:30:16;;;;;;;8.48;3.72;;;21.30;99.90;;;;;;6211587;23;20372;-78
2022/08/20 01:32:42;;;;;;;7.45;4.07;;;21.30;99.90;;;;;;6211567;23;20039;-79
2022/08/20 01:35:08;;;;;;;10.05;3.53;;;21.30;99.90;;;;;;6211305;23;20329;-79
2022/08/20 01:37:34;;;;;;;6.50;3.67;;;21.30;99.90;;;;;;6212133;23;20008;-79
2022/08/20 01:40:02;;;;;;;6.43;3.60;;;21.30;99.90;;;;;;6210770;23;20420;-78
2022/08/20 01:42:43;;;;;;;8.65;3.75;;;21.30;99.90;;;;;;6212474;23;20444;-78
2022/08/20 01:45:09;;;;;;;11.32;3.67;;;21.30;99.90;;;;;;6211379;23;20042;-79
2022/08/20 01:47:34;;;;;;;8.63;4.20;;;21.30;99.90;;;;;;6212486;23;20001;-79
2022/08/20 01:50:12;;;;;;;7.53;4.07;;;21.20;99.90;;;;;;6210696;23;20332;-78
2022/08/20 01:53:05;;;;;;;8.30;3.85;;;21.20;99.90;;;;;;6212352;23;20005;-79
2022/08/20 01:55:31;;;;;;;6.72;3.92;;;21.20;99.90;;;;;;6212933;23;19997;-78
2022/08/20 01:57:58;;;;;;;7.88;3.70;;;21.20;99.90;;;;;;6210592;23;20013;-78
2022/08/20 02:00:24;;;;;;;10.30;3.80;;;21.20;99.90;;;;;;6210860;23;20001;-78
2022/08/20 02:02:50;;;;;;;10.35;3.97;;;21.20;99.90;;;;;;6212235;23;20005;-78
2022/08/20 02:05:17;;;;;;;9.82;4.20;;;21.20;99.90;;;;;;6212800;23;20017;-78
2022/08/20 02:07:43;;;;;;;10.77;4.10;;;21.10;99.90;;;;;;6212137;23;20028;-79
2022/08/20 02:10:11;;;;;;;11.45;4.00;;;21.10;99.90;;;;;;6212505;23;20463;-78
2022/08/20 02:12:38;;;;;;;7.57;3.90;;;21.10;99.90;;;;;;6212372;23;20005;-78
2022/08/20 02:15:07;;;;;;;7.30;4.00;;;21.10;99.90;;;;;;6212924;23;20004;-79
2022/08/20 02:17:33;;;;;;;10.25;4.03;;;21.10;99.90;;;;;;6211582;23;20021;-78
2022/08/20 02:20:12;;;;;;;10.27;4.10;;;21.10;99.90;;;;;;6212578;23;20003;-78
2022/08/20 02:22:43;;;;;;;7.90;4.20;;;21.10;99.90;;;;;;6212104;23;20005;-79
2022/08/20 02:25:11;;;;;;;15.55;4.18;;;21.20;99.90;;;;;;6212759;23;20396;-79
2022/08/20 02:27:40;;;;;;;8.73;4.10;;;21.10;99.90;;;;;;6211822;23;20032;-79
2022/08/20 02:30:20;;;;;;;6.40;3.83;;;21.10;99.90;;;;;;6212515;23;20001;-79
2022/08/20 02:32:47;;;;;;;13.02;3.78;;;21.10;99.90;;;;;;6210376;23;20147;-79
2022/08/20 02:35:13;;;;;;;5.63;3.63;;;21.10;99.90;;;;;;6212166;23;20004;-79
2022/08/20 02:37:43;;;;;;;9.40;4.32;;;21.10;99.90;;;;;;6212559;23;20023;-79
2022/08/20 02:40:13;;;;;;;17.25;4.30;;;21.10;99.90;;;;;;6213447;23;20008;-79
2022/08/20 02:42:40;;;;;;;8.50;2.97;;;21.10;99.90;;;;;;6214098;23;20008;-79
2022/08/20 02:45:09;;;;;;;9.00;4.10;;;21.10;99.90;;;;;;6214537;23;20374;-79
2022/08/20 02:47:34;;;;;;;9.10;3.95;;;21.10;99.90;;;;;;6213395;23;20007;-79
2022/08/20 02:50:00;;;;;;;7.05;3.65;;;21.00;99.90;;;;;;6213098;23;20000;-79
2022/08/20 02:52:26;;;;;;;10.52;3.55;;;21.00;99.90;;;;;;6214029;23;20012;-79
2022/08/20 02:54:51;;;;;;;8.80;3.63;;;21.00;99.90;;;;;;6212366;23;20028;-78
2022/08/20 02:57:21;;;;;;;8.18;3.70;;;21.00;99.90;;;;;;6212110;23;20015;-79
2022/08/20 02:59:51;;;;;;;7.18;3.53;;;21.00;99.90;;;;;;6214181;23;20059;-78
2022/08/20 03:02:17;;;;;;;9.52;3.65;;;21.00;99.90;;;;;;6212205;23;20005;-79
2022/08/20 03:04:43;;;;;;;8.32;3.30;;;21.00;99.90;;;;;;6212376;23;20009;-78
2022/08/20 03:07:09;;;;;;;11.77;3.90;;;21.00;99.90;;;;;;6212020;23;20011;-78
2022/08/20 03:09:36;;;;;;;7.10;3.78;;;20.90;99.90;;;;;;6214125;23;20005;-78
2022/08/20 03:12:03;;;;;;;11.27;4.40;;;20.90;99.90;;;;;;6211768;23;20004;-78
2022/08/20 03:14:29;;;;;;;10.27;4.00;;;20.80;99.90;;;;;;6209095;23;20079;-77
2022/08/20 03:16:54;;;;;;;10.70;4.50;;;20.70;99.90;;;;;;6208669;23;20051;-78
2022/08/20 03:19:21;;;;;;;7.38;3.60;;;20.80;99.90;;;;;;6211914;23;20321;-78
2022/08/20 03:21:48;;;;;;;8.13;3.90;;;20.80;99.90;;;;;;6213204;23;20016;-78
2022/08/20 03:24:14;;;;;;;10.48;3.58;;;20.80;99.90;;;;;;6211795;23;20036;-78
2022/08/20 03:26:40;;;;;;;14.95;4.00;;;20.80;99.90;;;;;;6213701;23;20436;-78
2022/08/20 03:29:05;;;;;;;9.73;3.70;;;20.80;99.90;;;;;;6213686;23;19996;-78
2022/08/20 03:31:31;;;;;;;6.50;3.85;;;20.70;99.90;;;;;;6213705;23;20008;-78
2022/08/20 03:33:57;;;;;;;8.32;3.90;;;20.70;99.90;;;;;;6213230;23;20558;-78
2022/08/20 03:36:24;;;;;;;11.05;4.20;;;20.70;99.90;;;;;;6214132;23;20004;-78
2022/08/20 03:38:50;;;;;;;8.30;3.90;;;20.70;99.90;;;;;;6211750;23;20016;-78
2022/08/20 03:41:15;;;;;;;6.53;3.58;;;20.70;99.90;;;;;;6213610;23;20451;-78
2022/08/20 03:43:41;;;;;;;10.32;4.18;;;20.70;99.90;;;;;;6213057;23;20026;-78
2022/08/20 03:46:07;;;;;;;9.50;3.72;;;20.60;99.90;;;;;;6213782;23;20007;-78
2022/08/20 03:48:33;;;;;;;11.40;4.13;;;20.50;99.90;;;;;;6212797;23;20004;-78
2022/08/20 03:50:59;;;;;;;7.45;4.03;;;20.50;99.90;;;;;;6213368;23;20317;-78
2022/08/20 03:53:30;;;;;;;8.10;4.18;;;20.50;99.90;;;;;;6213346;23;20050;-78
2022/08/20 03:55:59;;;;;;;9.07;4.38;;;20.50;99.90;;;;;;6213809;23;20328;-78
2022/08/20 03:58:27;;;;;;;9.10;4.07;;;20.40;99.90;;;;;;6210953;23;20433;-78
2022/08/20 04:00:54;;;;;;;9.07;4.35;;;20.40;99.90;;;;;;6212263;23;20000;-78
2022/08/20 04:03:21;;;;;;;17.65;4.05;;;20.30;99.90;;;;;;6210996;23;20009;-78
2022/08/20 04:05:48;;;;;;;6.68;4.32;;;20.30;99.90;;;;;;6213821;23;20008;-78
2022/08/20 04:08:20;;;;;;;13.40;4.53;;;20.30;99.90;;;;;;6213490;23;20050;-78
2022/08/20 04:10:47;;;;;;;13.30;4.07;;;20.30;99.90;;;;;;6213670;23;20088;-78
2022/08/20 04:13:14;;;;;;;10.07;4.05;;;20.40;99.90;;;;;;6213076;23;20031;-78
2022/08/20 04:15:41;;;;;;;10.35;4.00;;;20.40;99.90;;;;;;6213070;23;19997;-78
2022/08/20 04:18:08;;;;;;;11.38;4.15;;;20.40;99.90;;;;;;6212714;23;20436;-78
2022/08/20 04:20:37;;;;;;;7.22;3.92;;;20.50;99.90;;;;;;6213265;23;20001;-78
2022/08/20 04:23:03;;;;;;;8.90;4.53;;;20.50;99.90;;;;;;6213010;23;20346;-78
2022/08/20 04:25:31;;;;;;;11.82;3.92;;;20.50;99.90;;;;;;6213474;23;19997;-78
2022/08/20 04:27:58;;;;;;;8.13;4.07;;;20.50;99.90;;;;;;6213242;23;20004;-76
2022/08/20 04:30:24;;;;;;;11.77;4.32;;;20.50;99.90;;;;;;6213520;23;19996;-76
2022/08/20 04:32:50;;;;;;;9.38;4.50;;;20.50;99.90;;;;;;6212633;23;20005;-76
2022/08/20 04:35:17;;;;;;;9.20;4.53;;;20.50;99.90;;;;;;6211475;23;20087;-76
2022/08/20 04:37:46;;;;;;;13.30;4.38;;;20.60;99.90;;;;;;6211213;23;20016;-76
2022/08/20 04:43:01;;;;;;;9.60;3.92;;;20.70;99.90;;;;;;6212637;23;20386;-78
2022/08/20 04:45:26;;;;;;;9.45;3.80;;;20.70;99.90;;;;;;6213236;23;20001;-78
2022/08/20 04:47:53;;;;;;;15.32;4.35;;;20.70;99.90;;;;;;6212945;23;20305;-78
2022/08/20 04:50:19;;;;;;;8.82;3.72;;;20.80;99.90;;;;;;6213655;23;20075;-78
2022/08/20 04:52:47;;;;;;;11.80;3.85;;;20.80;99.90;;;;;;6212296;23;20015;-78
2022/08/20 04:55:12;;;;;;;7.45;3.78;;;20.90;99.90;;;;;;6213084;23;19996;-78
2022/08/20 04:57:38;;;;;;;8.95;4.32;;;20.90;99.90;;;;;;6210909;23;20074;-78
2022/08/20 05:00:13;;;;;;;10.75;4.32;;;20.90;99.90;;;;;;6211360;23;20005;-78
2022/08/20 05:02:38;;;;;;;7.68;3.60;;;21.00;99.90;;;;;;6212353;23;20008;-79
2022/08/20 05:05:07;;;;;;;9.00;4.00;;;21.00;99.90;;;;;;6213165;23;20447;-79
2022/08/20 05:07:39;;;;;;;13.85;4.28;;;21.00;99.90;;;;;;6212876;23;20001;-79
2022/08/20 05:10:06;;;;;;;16.50;4.00;;;21.10;99.90;;;;;;6213009;23;19997;-76
2022/08/20 05:12:31;;;;;;;9.32;3.95;;;21.10;99.90;;;;;;6211461;23;20005;-78
2022/08/20 05:14:57;;;;;;;10.02;4.40;;;21.20;99.90;;;;;;6213222;23;19997;-78
2022/08/20 05:17:23;;;;;;;14.27;4.03;;;21.20;99.90;;;;;;6212449;23;20012;-78
2022/08/20 05:19:51;;;;;;;11.63;4.20;;;21.30;99.90;;;;;;6213120;23;20472;-78
2022/08/20 05:22:17;;;;;;;11.88;4.35;;;21.30;99.90;;;;;;6211180;23;20058;-78
2022/08/20 05:24:43;;;;;;;11.20;4.18;;;21.40;99.90;;;;;;6213152;23;20011;-78
2022/08/20 05:27:09;;;;;;;10.52;4.00;;;21.40;99.90;;;;;;6212621;23;20005;-78
2022/08/20 05:29:34;;;;;;;15.95;4.82;;;21.40;99.90;;;;;;6210304;23;20008;-76
2022/08/20 05:32:01;;;;;;;9.57;4.28;;;21.30;99.90;;;;;;6212391;23;20008;-77
2022/08/20 05:34:27;;;;;;;12.98;4.10;;;21.30;99.90;;;;;;6213058;23;19997;-79
2022/08/20 05:36:52;;;;;;;12.90;4.00;;;21.20;99.90;;;;;;6212802;23;20421;-76
2022/08/20 05:39:20;;;;;;;14.48;3.92;;;21.30;99.90;;;;;;6211124;23;20012;-76
2022/08/20 05:41:48;;;;;;;8.25;4.20;;;21.40;99.90;;;;;;6212679;23;20357;-75
2022/08/20 05:44:14;;;;;;;9.07;3.60;;;21.60;99.90;;;;;;6212567;23;19997;-77
2022/08/20 05:46:42;;;;;;;9.38;3.80;;;21.70;99.90;;;;;;6210770;23;20502;-80
2022/08/20 05:49:18;;;;;;;10.15;3.50;;;21.80;99.90;;;;;;6210234;23;20005;-78
2022/08/20 05:51:44;;;;;;;13.07;4.47;;;21.90;99.90;;;;;;6211088;23;20055;-79
2022/08/20 05:54:11;;;;;;;8.35;3.85;;;22.00;99.90;;;;;;6212607;23;20466;-77
2022/08/20 05:56:38;;;;;;;10.73;4.68;;;22.10;99.90;;;;;;6211552;23;20005;-79
2022/08/20 05:59:06;;;;;;;15.85;4.32;;;22.20;99.90;;;;;;6212225;23;20012;-79
2022/08/20 06:01:33;;;;;;;11.57;4.53;;;22.30;99.90;;;;;;6212476;23;20407;-78
2022/08/20 06:06:43;;;;;;;8.43;4.32;;;22.40;99.90;;;;;;6212284;23;20012;-78
2022/08/20 06:09:09;;;;;;;11.50;4.32;;;22.40;99.90;;;;;;6212165;23;20367;-78
2022/08/20 06:11:35;;;;;;;13.50;4.97;;;22.40;99.90;;;;;;6212950;23;20005;-79
2022/08/20 06:14:01;;;;;;;10.45;4.70;;;22.50;99.90;;;;;;6212549;23;20062;-76
2022/08/20 06:16:27;;;;;;;8.63;4.60;;;22.50;99.90;;;;;;6214611;23;20079;-77
2022/08/20 06:18:53;;;;;;;8.25;4.22;;;22.60;99.90;;;;;;6212141;23;20036;-79
2022/08/20 06:21:18;;;;;;;12.98;4.50;;;22.70;99.90;;;;;;6214190;23;20176;-79
2022/08/20 06:23:44;;;;;;;9.20;4.35;;;22.70;99.90;;;;;;6213976;23;20004;-78
2022/08/20 06:26:10;;;;;;;8.80;3.92;;;22.80;99.90;;;;;;6212717;23;20008;-81
2022/08/20 06:28:36;;;;;;;9.70;4.40;;;22.90;99.90;;;;;;6213339;23;20071;-78
2022/08/20 06:31:02;;;;;;;11.85;4.07;;;22.90;99.90;;;;;;6214288;23;20590;-80
2022/08/20 06:33:28;;;;;;;7.85;4.10;;;23.00;99.90;;;;;;6214002;23;20063;-80
2022/08/20 06:35:54;;;;;;;10.30;3.55;;;23.00;99.90;;;;;;6213669;23;20005;-81
2022/08/20 06:38:20;;;;;;;9.82;3.75;;;23.10;99.90;;;;;;6213980;23;20020;-77
2022/08/20 06:40:46;;;;;;;10.35;4.18;;;23.10;99.90;;;;;;6214575;23;20041;-77
2022/08/20 06:43:12;;;;;;;9.32;3.63;;;23.20;99.90;;;;;;6213881;23;20008;-77
2022/08/20 06:45:38;;;;;;;11.98;3.40;;;23.20;99.90;;;;;;6212912;23;20011;-77
2022/08/20 06:48:10;;;;;;;11.25;3.85;;;23.20;99.90;;;;;;6212390;23;20008;-78
2022/08/20 06:50:41;;;;;;;5.40;3.30;;;23.30;99.90;;;;;;6213145;23;20004;-78
2022/08/20 06:53:08;;;;;;;13.32;3.97;;;23.30;99.90;;;;;;6212249;23;20004;-78
2022/08/20 06:55:36;;;;;;;12.25;4.10;;;23.40;99.90;;;;;;6214718;23;19996;-78
2022/08/20 06:58:06;;;;;;;10.48;3.90;;;23.40;99.90;;;;;;6213905;23;20029;-78
2022/08/20 07:00:33;;;;;;;8.82;3.85;;;23.50;99.90;;;;;;6212658;23;20083;-78
2022/08/20 07:03:00;;;;;;;13.88;4.10;;;23.60;99.90;;;;;;6212348;23;20094;-78
2022/08/20 07:05:31;;;;;;;10.65;4.03;;;23.70;99.90;;;;;;6214626;23;20001;-78
2022/08/20 07:07:57;;;;;;;13.30;4.03;;;23.70;99.90;;;;;;6213884;23;20009;-78
2022/08/20 07:10:24;;;;;;;9.43;3.72;;;23.70;99.90;;;;;;6214288;23;20033;-78
2022/08/20 07:12:50;;;;;;;13.20;4.10;;;23.80;99.90;;;;;;6212078;23;20459;-78
2022/08/20 07:15:18;;;;;;;13.07;4.07;;;23.80;99.90;;;;;;6214127;23;20077;-80
2022/08/20 07:17:52;;;;;;;12.15;4.35;;;23.80;99.90;;;;;;6213380;23;20040;-78
2022/08/20 07:20:18;;;;;;;13.75;4.07;;;23.70;99.90;;;;;;6212642;23;20028;-80
2022/08/20 07:22:44;;;;;;;7.15;3.47;;;23.70;99.90;;;;;;6211903;23;20015;-80
2022/08/20 07:25:13;;;;;;;15.43;3.47;;;23.70;99.90;;;;;;6213544;23;20432;-77
2022/08/20 07:27:39;;;;;;;16.05;4.15;;;23.70;99.90;;;;;;6212114;23;20095;-79
2022/08/20 07:32:51;;;;;;;16.10;3.90;;;23.70;99.90;;;;;;6213432;23;20468;-79
2022/08/20 07:35:18;;;;;;;7.75;3.67;;;23.70;99.90;;;;;;6213998;23;20004;-79
2022/08/20 07:37:49;;;;;;;9.65;3.75;;;23.60;99.90;;;;;;6211717;23;20036;-78
2022/08/20 07:40:21;;;;;;;13.32;3.95;;;23.70;99.90;;;;;;6214151;23;19996;-79
2022/08/20 07:42:49;;;;;;;15.15;4.57;;;23.70;99.90;;;;;;6213770;23;20008;-79
2022/08/20 07:45:17;;;;;;;12.32;4.07;;;23.80;99.90;;;;;;6213777;23;20001;-79
2022/08/20 07:47:44;;;;;;;10.52;4.05;;;23.90;99.90;;;;;;6213437;23;20062;-79
2022/08/20 07:50:14;;;;;;;7.25;3.70;;;24.00;99.90;;;;;;6214124;23;20008;-79
2022/08/20 07:52:40;;;;;;;9.13;3.95;;;24.00;99.90;;;;;;6207087;23;20095;-78
2022/08/20 07:55:10;;;;;;;10.90;3.45;;;24.20;99.90;;;;;;6208231;23;20047;-79
2022/08/20 07:57:36;;;;;;;9.57;3.25;;;24.10;99.90;;;;;;6209159;23;20012;-79
2022/08/20 08:00:07;;;;;;;10.68;3.83;;;24.00;99.90;;;;;;6209427;23;20016;-79
2022/08/20 08:02:34;;;;;;;11.60;3.90;;;24.00;99.90;;;;;;6209118;23;20005;-79
2022/08/20 08:05:00;;;;;;;20.27;4.47;;;24.00;99.90;;;;;;6209191;23;20004;-77
2022/08/20 08:07:27;;;;;;;13.27;3.85;;;24.10;99.90;;;;;;6209238;23;20491;-77
2022/08/20 08:09:54;;;;;;;12.05;4.45;;;24.20;99.90;;;;;;6207977;23;20011;-77
2022/08/20 08:12:20;;;;;;;11.57;4.10;;;24.30;99.90;;;;;;6208715;23;20016;-78
2022/08/20 08:14:47;;;;;;;10.13;4.07;;;24.40;99.90;;;;;;6207528;23;20040;-77
2022/08/20 08:17:15;;;;;;;8.45;3.58;;;24.50;99.90;;;;;;6208465;23;20016;-77
2022/08/20 08:19:47;;;;;;;8.73;3.30;;;24.60;99.90;;;;;;6209121;23;20004;-80
2022/08/20 08:22:15;;;;;;;;;;;24.70;99.90;;;;;;6209603;23;20005;-78
2022/08/20 08:24:42;;;;;;;8.77;4.03;;;24.70;99.90;;;;;;6207881;23;20043;-80
2022/08/20 08:27:08;;;;;;;13.13;4.07;;;24.70;99.90;;;;;;6209134;23;20004;-79
2022/08/20 08:29:35;;;;;;;12.80;3.83;;;24.80;99.90;;;;;;6209138;23;20009;-77
2022/08/20 08:32:05;;;;;;;8.60;3.70;;;24.90;99.90;;;;;;6208609;23;20008;-79
2022/08/20 08:34:32;;;;;;;15.43;3.53;;;24.80;99.90;;;;;;6209527;23;20005;-79
2022/08/20 08:37:00;;;;;;;6.30;3.65;;;24.80;99.90;;;;;;6208606;23;20001;-79
2022/08/20 08:39:26;;;;;;;10.43;3.50;;;24.90;99.90;;;;;;6209191;23;20016;-79
2022/08/20 08:41:53;;;;;;;8.23;3.55;;;24.90;99.90;;;;;;6208678;23;20001;-79
2022/08/20 08:44:23;;;;;;;14.02;3.65;;;24.90;99.90;;;;;;6208943;23;20000;-79
2022/08/20 08:46:56;;;;;;;8.80;3.03;;;24.90;99.90;;;;;;6208729;23;20092;-79
2022/08/20 08:49:28;;;;;;;8.00;3.80;;;24.90;99.90;;;;;;6211668;23;20000;-80
2022/08/20 08:52:01;;;;;;;7.55;3.75;;;25.00;99.90;;;;;;6212975;23;20055;-79
2022/08/20 08:54:30;;;;;;;7.50;3.92;;;25.10;99.90;;;;;;6211513;23;20008;-79
2022/08/20 08:56:58;;;;;;;10.77;3.53;;;25.10;99.90;;;;;;6212954;23;20028;-79
2022/08/20 08:59:28;;;;;;;7.55;3.13;;;25.20;99.90;;;;;;6213151;23;20605;-79
2022/08/20 09:01:57;;;;;;;5.72;3.00;;;25.30;99.90;;;;;;6212761;23;20436;-80
2022/08/20 09:04:34;;;;;;;7.70;3.42;;;25.30;99.90;;;;;;6211451;23;20004;-79
2022/08/20 09:07:04;;;;;;;13.02;3.63;;;25.40;99.90;;;;;;6211291;23;20108;-79
2022/08/20 09:09:38;;;;;;;7.90;3.08;;;25.50;99.90;;;;;;6213146;23;19997;-80
2022/08/20 09:12:13;;;;;;;14.02;3.70;;;25.50;99.90;;;;;;6212786;23;20440;-79
2022/08/20 09:14:40;;;;;;;8.65;3.42;;;25.50;99.90;;;;;;6211575;23;20035;-79
2022/08/20 09:17:06;;;;;;;11.60;4.00;;;25.50;99.90;;;;;;6212226;23;20461;-80
2022/08/20 09:19:32;;;;;;;10.82;3.90;;;25.60;99.90;;;;;;6212625;23;20348;-79
2022/08/20 09:22:05;;;;;;;8.80;3.92;;;25.50;99.90;;;;;;6212734;23;19997;-80
2022/08/20 09:24:30;;;;;;;9.98;3.47;;;25.50;99.90;;;;;;6212895;23;20332;-79
2022/08/20 09:26:56;;;;;;;6.45;3.15;;;25.50;99.90;;;;;;6212882;23;19996;-80
2022/08/20 09:29:22;;;;;;;9.45;3.63;;;25.60;99.90;;;;;;6212964;23;20004;-80
2022/08/20 09:31:47;;;;;;;11.00;3.75;;;25.70;99.90;;;;;;6212762;23;20007;-80
2022/08/20 09:34:13;;;;;;;8.18;3.42;;;25.80;99.90;;;;;;6212593;23;20100;-80
2022/08/20 09:36:39;;;;;;;11.90;3.55;;;25.70;99.90;;;;;;6213122;23;20011;-79
2022/08/20 09:39:05;;;;;;;9.32;4.00;;;25.80;99.90;;;;;;6212700;23;20012;-79
2022/08/20 09:41:31;;;;;;;11.27;3.50;;;25.80;99.90;;;;;;6211426;23;20019;-80
2022/08/20 09:43:56;;;;;;;10.50;3.72;;;25.90;99.90;;;;;;6212670;23;19997;-79
2022/08/20 09:46:22;;;;;;;17.00;3.88;;;25.80;99.90;;;;;;6213029;23;20071;-79
2022/08/20 09:48:48;;;;;;;8.60;3.33;;;25.80;99.90;;;;;;6214111;23;20421;-80
2022/08/20 09:51:13;;;;;;;9.07;3.70;;;25.80;99.90;;;;;;6214973;23;19996;-80
2022/08/20 09:53:40;;;;;;;14.20;3.38;;;25.80;99.90;;;;;;6214676;23;20012;-80
2022/08/20 09:56:05;;;;;;;11.40;3.85;;;26.00;99.90;;;;;;6214767;23;20043;-80
2022/08/20 09:58:53;;;;;;;8.63;3.22;;;26.00;99.90;;;;;;6214303;23;20013;-80
2022/08/20 10:01:20;;;;;;;12.25;3.50;;;26.10;99.90;;;;;;6213100;23;20032;-78
2022/08/20 10:03:47;;;;;;;8.82;3.33;;;26.20;99.90;;;;;;6214464;23;20008;-77
2022/08/20 10:06:15;;;;;;;8.93;3.30;;;26.40;99.90;;;;;;6215035;23;20077;-80
2022/08/20 10:08:42;;;;;;;7.82;3.30;;;26.50;99.90;;;;;;6214435;23;20247;-81
2022/08/20 10:11:08;;;;;;;14.52;3.45;;;26.60;99.90;;;;;;6214835;23;19997;-77
2022/08/20 10:13:33;;;;;;;8.38;3.28;;;26.60;99.90;;;;;;6212993;23;20024;-77
2022/08/20 10:15:59;;;;;;;9.13;3.40;;;26.70;99.90;;;;;;6212959;23;20063;-77
2022/08/20 10:18:25;;;;;;;7.47;3.13;;;26.70;99.90;;;;;;6214136;23;20091;-78
2022/08/20 10:20:50;;;;;;;7.47;3.10;;;26.70;99.90;;;;;;6214972;23;20000;-79
2022/08/20 10:23:16;;;;;;;9.07;3.08;;;26.90;99.90;;;;;;6214057;23;20008;-78
2022/08/20 10:25:42;;;;;;;7.68;2.95;;;26.60;99.90;;;;;;6214936;23;20004;-81
2022/08/20 10:28:08;;;;;;;12.27;3.30;;;26.50;99.90;;;;;;6214460;23;20007;-78
2022/08/20 10:30:34;;;;;;;9.45;3.10;;;26.60;99.90;;;;;;6214685;23;20001;-78
2022/08/20 10:33:00;;;;;;;8.20;3.03;;;26.50;99.90;;;;;;6213959;23;20040;-78
2022/08/20 10:35:26;;;;;;;9.30;3.45;;;26.40;99.90;;;;;;6212749;23;20004;-78
2022/08/20 10:37:52;;;;;;;8.35;3.28;;;26.30;99.90;;;;;;6212243;23;20391;-78
2022/08/20 10:40:18;;;;;;;9.05;3.70;;;26.20;99.90;;;;;;6213016;23;19997;-77
2022/08/20 10:42:43;;;;;;;11.77;3.80;;;26.10;99.90;;;;;;6214002;23;20008;-79
2022/08/20 10:45:11;;;;;;;12.77;3.55;;;26.00;99.90;;;;;;6212591;23;20155;-78
2022/08/20 10:47:37;;;;;;;6.97;3.20;;;26.00;99.90;;;;;;6212623;23;20008;-78
2022/08/20 10:50:06;;;;;;;12.40;3.38;;;26.00;99.90;;;;;;6210472;23;20004;-77
2022/08/20 10:52:32;;;;;;;11.57;3.60;;;26.00;99.90;;;;;;6212456;23;20000;-78
2022/08/20 10:54:57;;;;;;;10.77;3.60;;;26.00;99.90;;;;;;6212447;23;20047;-79
2022/08/20 10:57:26;;;;;;;8.88;3.30;;;26.10;99.90;;;;;;6212889;23;20055;-78
2022/08/20 10:59:54;;;;;;;14.57;3.92;;;26.20;99.90;;;;;;6214153;23;20055;-78
2022/08/20 11:02:21;;;;;;;8.80;3.38;;;26.20;99.90;;;;;;6213810;23;20001;-79
2022/08/20 11:04:47;;;;;;;11.50;3.42;;;26.40;99.90;;;;;;6214309;23;20012;-79
2022/08/20 11:07:25;;;;;;;10.10;3.20;;;26.60;99.90;;;;;;6213772;23;20007;-79
2022/08/20 11:09:51;;;;;;;9.85;3.50;;;26.90;99.90;;;;;;6212925;23;20366;-80
2022/08/20 11:12:19;;;;;;;6.85;3.47;;;27.10;99.90;;;;;;6213799;23;20000;-80
2022/08/20 11:14:45;;;;;;;11.15;3.50;;;27.30;99.90;;;;;;6214221;23;20032;-79
2022/08/20 11:17:11;;;;;;;10.50;3.40;;;27.60;99.90;;;;;;6212205;23;20120;-79
2022/08/20 11:19:42;;;;;;;12.45;3.50;;;28.00;99.90;;;;;;6214058;23;20035;-79
2022/08/20 11:22:09;;;;;;;15.73;3.43;;;28.20;99.90;;;;;;6212195;23;20487;-79
2022/08/20 11:24:35;;;;;;;24.13;4.00;;;28.40;99.90;;;;;;6212418;23;20004;-79
2022/08/20 11:27:01;;;;;;;10.48;4.10;;;28.30;99.90;;;;;;6214005;23;20007;-79
2022/08/20 11:29:27;;;;;;;10.23;3.70;;;27.80;99.90;;;;;;6212627;23;20008;-79
2022/08/20 11:31:53;;;;;;;14.45;3.50;;;27.30;99.90;;;;;;6213544;23;20509;-80
2022/08/20 11:34:18;;;;;;;22.13;5.22;;;26.90;99.90;;;;;;6213750;23;20005;-77
2022/08/20 11:36:46;;;;;;;57.47;7.47;;;26.30;99.90;;;;;;6212087;23;20058;-75
2022/08/20 11:39:12;;;;;;;246.23;17.60;;;25.40;99.90;;;;;;6213528;23;20009;-78
2022/08/20 11:41:38;;;;;;;34.80;6.72;;;22.60;99.90;;;;;;6213984;23;20317;-81
2022/08/20 11:44:04;;;;;;;16.42;6.85;;;21.30;99.90;;;;;;6213490;23;20000;-84
2022/08/20 11:46:31;;;;;;;16.42;7.00;;;20.90;99.90;;;;;;6212240;23;20012;-85
2022/08/20 11:48:57;;;;;;;21.15;9.73;;;21.00;99.90;;;;;;6213270;23;20142;-82
2022/08/20 11:51:23;;;;;;;13.95;8.95;;;21.20;99.90;;;;;;6213512;23;19993;-81
2022/08/20 11:53:49;;;;;;;24.20;12.23;;;21.60;99.90;;;;;;6213482;23;20375;-80
2022/08/20 11:56:16;;;;;;;11.77;9.45;;;22.00;99.90;;;;;;6214154;23;20020;-83
2022/08/20 11:58:42;;;;;;;17.45;11.25;;;22.50;99.90;;;;;;6212023;23;20098;-81
2022/08/20 12:01:08;;;;;;;12.10;8.15;;;23.20;99.90;;;;;;6213596;23;19992;-82
2022/08/20 12:03:35;;;;;;;14.63;8.25;;;23.90;99.90;;;;;;6211544;23;20011;-82
2022/08/20 12:06:00;;;;;;;15.82;7.20;;;24.50;99.90;;;;;;6212436;23;20080;-82
2022/08/20 12:08:28;;;;;;;14.15;7.57;;;25.10;99.90;;;;;;6211707;23;20082;-81
2022/08/20 12:10:58;;;;;;;13.95;7.05;;;25.60;99.90;;;;;;6213302;23;20031;-80
2022/08/20 12:13:26;;;;;;;9.52;4.75;;;26.50;99.90;;;;;;6211594;23;20009;-82
2022/08/20 12:15:53;;;;;;;7.22;3.80;;;27.70;99.90;;;;;;6213545;23;20000;-79
2022/08/20 12:18:19;;;;;;;9.05;3.35;;;30.00;99.90;;;;;;6212609;23;20024;-79
2022/08/20 12:20:45;;;;;;;11.10;3.38;;;32.30;99.90;;;;;;6213483;23;20001;-80
2022/08/20 12:23:10;;;;;;;8.95;3.03;;;33.70;99.90;;;;;;6213139;23;20439;-80
2022/08/20 12:25:36;;;;;;;7.22;3.10;;;35.30;99.90;;;;;;6213696;23;20001;-81
2022/08/20 12:28:03;;;;;;;5.25;2.60;;;36.80;99.90;;;;;;6211214;23;20643;-80
2022/08/20 12:30:31;;;;;;;6.53;2.00;;;37.50;99.90;;;;;;6213647;23;20146;-80
2022/08/20 12:32:57;;;;;;;8.30;2.20;;;37.50;99.90;;;;;;6212902;23;20004;-80
2022/08/20 12:35:23;;;;;;;4.20;2.20;;;37.10;99.90;;;;;;6213320;23;20024;-80
2022/08/20 12:37:50;;;;;;;4.10;2.30;;;37.40;99.90;;;;;;6211366;23;20016;-80
2022/08/20 12:40:22;;;;;;;3.47;1.85;;;37.80;99.90;;;;;;6213566;23;20007;-81
2022/08/20 12:42:48;;;;;;;5.40;2.42;;;38.70;99.90;;;;;;6208461;23;20008;-79
2022/08/20 12:45:15;;;;;;;4.68;2.20;;;40.00;99.90;;;;;;6208922;23;20007;-79
2022/08/20 12:47:43;;;;;;;3.95;1.92;;;40.00;99.90;;;;;;6208685;23;20082;-79
2022/08/20 12:50:13;;;;;;;7.88;2.38;;;38.80;99.90;;;;;;6209112;23;20008;-79
2022/08/20 12:52:39;;;;;;;3.58;1.92;;;39.00;99.90;;;;;;6207118;23;20009;-78
2022/08/20 12:55:08;;;;;;;4.38;2.17;;;38.30;99.90;;;;;;6208337;23;20614;-78
2022/08/20 12:57:38;;;;;;;6.40;2.45;;;39.10;99.90;;;;;;6208632;23;20063;-79